釧路空港の過去48時間の天気

釧路空港 (Kushiro)

現在時刻: 9/19 07:43 JST (9/18 22:43 UTC) 以下の時間は現地時間です。

過去48時間のMETAR気象情報
時間 風向 風速(m/s) 視程 気温(℃) 湿度(%) 気圧(hPa) 天気現象
19 07:00 不定 1 10km以上 16 82 1011
19 06:45 北北西 2 10km以上 15 88 1011
RJCK 182200Z VRB02KT 9999 FEW030 16/13 Q1011
RJCK 182145Z 33003KT 290V030 9999 FEW030 15/13 Q1011 RMK 1CU030 A2986